Time;durP1;ratioP1;P1;durP2;ratioP2;P2;SDS_P1;SDS_P2;PMS_P1;PMS_P2;Temp;Humidity;BMP_temperature;BMP_pressure;BME280_temperature;BME280_humidity;BME280_pressure;Samples;Min_cycle;Max_cycle;Signal;HPM_P1;HPM_P2
2022/09/16 00:01:14;;;;;;;3.08;1.20;;;15.80;99.90;;;;;;5032125;28;20176;-81
2022/09/16 00:03:40;;;;;;;6.30;1.60;;;15.70;99.90;;;;;;5032128;28;20171;-81
2022/09/16 00:06:12;;;;;;;1.50;0.98;;;15.60;99.90;;;;;;5032001;28;20192;-81
2022/09/16 00:08:39;;;;;;;2.67;1.27;;;15.70;99.90;;;;;;5033223;28;20211;-81
2022/09/16 00:11:04;;;;;;;2.05;1.20;;;15.60;99.90;;;;;;5031937;28;20249;-81
2022/09/16 00:13:30;;;;;;;5.60;1.35;;;15.70;99.90;;;;;;5033481;28;20209;-81
2022/09/16 00:15:55;;;;;;;5.72;1.40;;;15.70;99.90;;;;;;5031983;28;20650;-82
2022/09/16 00:18:21;;;;;;;3.10;2.00;;;15.80;99.90;;;;;;5033106;28;20167;-81
2022/09/16 00:20:49;;;;;;;9.57;1.80;;;15.80;99.90;;;;;;5032117;28;20990;-82
2022/09/16 00:23:16;;;;;;;3.13;1.40;;;15.70;99.90;;;;;;5033066;28;20537;-81
2022/09/16 00:25:41;;;;;;;1.95;1.40;;;15.60;99.90;;;;;;5031630;28;20191;-81
2022/09/16 00:28:07;;;;;;;4.15;1.10;;;15.70;99.90;;;;;;5031776;28;20580;-81
2022/09/16 00:30:32;;;;;;;4.63;1.67;;;15.60;99.90;;;;;;5032964;28;20172;-82
2022/09/16 00:32:58;;;;;;;4.28;1.08;;;15.70;99.90;;;;;;5031934;28;20653;-82
2022/09/16 00:35:24;;;;;;;4.55;1.20;;;15.60;99.90;;;;;;5031468;28;20196;-82
2022/09/16 00:37:49;;;;;;;9.10;1.35;;;15.60;99.90;;;;;;5031436;28;20175;-81
2022/09/16 00:40:15;;;;;;;7.63;1.52;;;15.50;99.90;;;;;;5031990;28;20213;-82
2022/09/16 00:42:41;;;;;;;1.42;1.10;;;15.70;99.90;;;;;;5031900;28;20171;-81
2022/09/16 00:45:16;;;;;;;3.33;1.00;;;15.70;99.90;;;;;;5031969;28;20199;-81
2022/09/16 00:47:54;;;;;;;7.85;2.05;;;15.60;99.90;;;;;;5032027;28;20221;-83
2022/09/16 00:50:26;;;;;;;1.85;1.00;;;15.60;99.90;;;;;;5032094;28;20167;-85
2022/09/16 00:52:54;;;;;;;1.92;1.25;;;15.60;99.90;;;;;;5031104;28;20168;-81
2022/09/16 00:55:27;;;;;;;1.85;0.95;;;15.60;99.90;;;;;;5031051;28;20855;-83
2022/09/16 00:57:56;;;;;;;6.38;1.15;;;15.60;99.90;;;;;;5032310;28;20172;-81
2022/09/16 01:00:22;;;;;;;2.03;0.95;;;15.50;99.90;;;;;;5031296;28;20237;-82
2022/09/16 01:02:49;;;;;;;7.38;1.10;;;15.40;99.90;;;;;;5031423;28;20205;-81
2022/09/16 01:05:19;;;;;;;3.28;1.73;;;15.40;99.90;;;;;;5032260;28;20226;-81
2022/09/16 01:07:47;;;;;;;4.80;1.10;;;15.40;99.90;;;;;;5032581;28;20610;-82
2022/09/16 01:10:18;;;;;;;4.20;1.17;;;15.50;99.90;;;;;;5031148;28;20576;-81
2022/09/16 01:12:46;;;;;;;6.68;1.40;;;15.60;99.90;;;;;;5031129;28;20541;-82
2022/09/16 01:15:13;;;;;;;1.20;0.80;;;15.40;99.90;;;;;;5032221;28;20187;-85
2022/09/16 01:18:03;;;;;;;6.22;1.70;;;15.30;99.90;;;;;;5031936;28;20191;-83
2022/09/16 01:20:53;;;;;;;8.05;1.92;;;15.10;99.90;;;;;;5032460;28;20700;-81
2022/09/16 01:23:52;;;;;;;3.13;0.90;;;15.10;99.90;;;;;;5031162;28;20171;-82
2022/09/16 01:27:05;;;;;;;5.70;1.17;;;15.00;99.90;;;;;;5032310;28;20657;-81
2022/09/16 01:29:59;;;;;;;4.72;1.20;;;15.00;99.90;;;;;;5021844;28;20211;-81
2022/09/16 01:32:36;;;;;;;3.35;1.10;;;14.90;99.90;;;;;;5031176;28;20171;-83
2022/09/16 01:35:04;;;;;;;2.40;1.15;;;14.90;99.90;;;;;;5030677;28;20222;-80
2022/09/16 01:37:59;;;;;;;5.57;0.85;;;14.80;99.90;;;;;;5031298;28;20207;-80
2022/09/16 01:40:47;;;;;;;3.33;1.08;;;14.80;99.90;;;;;;5020220;28;20222;-81
2022/09/16 01:43:37;;;;;;;8.25;1.27;;;14.90;99.90;;;;;;5030913;28;20168;-82
2022/09/16 01:46:18;;;;;;;4.63;1.15;;;14.80;99.90;;;;;;5030645;28;20273;-81
2022/09/16 01:48:55;;;;;;;6.28;1.10;;;14.80;99.90;;;;;;5030684;28;20683;-80
2022/09/16 01:52:02;;;;;;;0.68;0.68;;;14.80;99.90;;;;;;5030472;28;20175;-80
2022/09/16 01:54:40;;;;;;;3.83;1.00;;;14.90;99.90;;;;;;5022676;28;20605;-83
2022/09/16 01:57:37;;;;;;;7.65;1.38;;;14.70;99.90;;;;;;5031887;28;20174;-82
2022/09/16 02:00:14;;;;;;;4.53;1.00;;;14.60;99.90;;;;;;5030645;28;20180;-80
2022/09/16 02:02:47;;;;;;;5.82;1.08;;;14.70;99.90;;;;;;5031916;28;20541;-80
2022/09/16 02:05:31;;;;;;;1.13;0.85;;;14.70;99.90;;;;;;5030392;28;20620;-83
2022/09/16 02:08:05;;;;;;;10.07;1.23;;;14.80;99.90;;;;;;5030548;28;20176;-81
2022/09/16 02:10:39;;;;;;;1.30;1.15;;;14.90;99.90;;;;;;5030613;28;20188;-83
2022/09/16 02:13:17;;;;;;;6.13;1.30;;;14.90;99.90;;;;;;5031827;28;20168;-83
2022/09/16 02:15:47;;;;;;;1.17;0.95;;;15.00;99.90;;;;;;5030271;28;20222;-82
2022/09/16 02:18:16;;;;;;;4.22;1.30;;;15.00;99.90;;;;;;5030182;28;20172;-84
2022/09/16 02:20:45;;;;;;;1.25;0.77;;;15.00;99.90;;;;;;5031629;28;20164;-84
2022/09/16 02:23:16;;;;;;;12.90;1.20;;;15.00;99.90;;;;;;5030538;28;20175;-83
2022/09/16 02:25:45;;;;;;;8.52;1.08;;;15.00;99.90;;;;;;5030601;28;20230;-87
2022/09/16 02:28:16;;;;;;;5.43;1.40;;;15.20;99.90;;;;;;5030923;28;20168;-82
2022/09/16 02:30:46;;;;;;;4.78;1.27;;;15.10;99.90;;;;;;5033970;28;20216;-81
2022/09/16 02:33:14;;;;;;;2.55;1.00;;;15.10;99.90;;;;;;5033955;28;20167;-80
2022/09/16 02:35:43;;;;;;;13.05;1.67;;;15.10;99.90;;;;;;5033915;28;20192;-82
2022/09/16 02:38:31;;;;;;;5.32;1.00;;;15.30;99.90;;;;;;5035254;28;20172;-82
2022/09/16 02:40:59;;;;;;;3.88;1.20;;;15.40;99.90;;;;;;5034704;28;20266;-83
2022/09/16 02:43:26;;;;;;;4.13;0.98;;;15.40;99.90;;;;;;5034967;28;20164;-81
2022/09/16 02:46:18;;;;;;;6.95;0.98;;;15.30;99.90;;;;;;5033381;28;20298;-82
2022/09/16 02:49:05;;;;;;;3.42;0.85;;;15.10;99.90;;;;;;5033792;28;20281;-84
2022/09/16 02:51:40;;;;;;;3.28;0.90;;;15.00;99.90;;;;;;5033337;28;20251;-83
2022/09/16 02:54:19;;;;;;;4.45;1.02;;;14.90;99.90;;;;;;5033385;28;20213;-83
2022/09/16 02:56:45;;;;;;;9.00;1.13;;;15.00;99.90;;;;;;5034666;28;20199;-82
2022/09/16 02:59:13;;;;;;;3.15;1.13;;;15.00;99.90;;;;;;5033627;28;20202;-82
2022/09/16 03:01:43;;;;;;;3.80;0.80;;;15.10;99.90;;;;;;5033455;28;20634;-83
2022/09/16 03:04:18;;;;;;;7.93;0.90;;;15.20;99.90;;;;;;5033607;28;20172;-82
2022/09/16 03:06:45;;;;;;;7.63;0.85;;;15.10;99.90;;;;;;5034992;28;20175;-82
2022/09/16 03:09:12;;;;;;;2.40;1.10;;;15.10;99.90;;;;;;5033526;28;20212;-82
2022/09/16 03:11:53;;;;;;;8.05;1.40;;;15.10;99.90;;;;;;5033284;28;20568;-82
2022/09/16 03:14:27;;;;;;;12.35;1.27;;;14.90;99.90;;;;;;5033201;28;20238;-81
2022/09/16 03:17:07;;;;;;;3.45;0.90;;;14.90;99.90;;;;;;5033057;28;20171;-81
2022/09/16 03:19:39;;;;;;;2.88;0.98;;;15.00;99.90;;;;;;5033044;28;20572;-82
2022/09/16 03:22:28;;;;;;;2.63;0.90;;;14.90;99.90;;;;;;5033217;28;20178;-82
2022/09/16 03:25:16;;;;;;;6.75;1.25;;;15.00;99.90;;;;;;5034032;28;20223;-81
2022/09/16 03:27:51;;;;;;;8.20;1.20;;;14.90;99.90;;;;;;5032714;28;20203;-82
2022/09/16 03:30:17;;;;;;;3.08;0.88;;;15.00;99.90;;;;;;5033857;28;20211;-82
2022/09/16 03:32:56;;;;;;;2.33;0.80;;;15.10;99.90;;;;;;5032616;28;20622;-82
2022/09/16 03:35:52;;;;;;;6.80;1.88;;;15.20;99.90;;;;;;5032114;28;20191;-82
2022/09/16 03:38:18;;;;;;;4.50;1.15;;;15.10;99.90;;;;;;5033267;28;20187;-82
2022/09/16 03:40:46;;;;;;;4.13;1.20;;;15.10;99.90;;;;;;5033288;28;20168;-82
2022/09/16 03:43:14;;;;;;;1.88;1.02;;;15.10;99.90;;;;;;5032694;28;20178;-81
2022/09/16 03:45:41;;;;;;;6.55;1.05;;;15.10;99.90;;;;;;5033730;28;20199;-82
2022/09/16 03:48:08;;;;;;;14.52;1.83;;;15.10;99.90;;;;;;5032788;28;20172;-82
2022/09/16 03:50:34;;;;;;;2.05;1.10;;;15.10;99.90;;;;;;5033768;28;20172;-81
2022/09/16 03:52:59;;;;;;;5.78;1.00;;;15.10;99.90;;;;;;5032083;28;20214;-81
2022/09/16 03:55:25;;;;;;;2.22;1.00;;;15.00;99.90;;;;;;5032466;28;20666;-81
2022/09/16 03:57:52;;;;;;;5.30;1.55;;;15.00;99.90;;;;;;5032748;28;20634;-83
2022/09/16 04:00:18;;;;;;;2.28;1.38;;;15.00;99.90;;;;;;5032485;28;20617;-84
2022/09/16 04:02:44;;;;;;;8.43;1.80;;;15.00;99.90;;;;;;5032104;28;20207;-81
2022/09/16 04:05:09;;;;;;;13.23;1.98;;;15.10;99.90;;;;;;5031926;28;20195;-81
2022/09/16 04:07:35;;;;;;;6.72;1.25;;;14.90;99.90;;;;;;5032279;28;20187;-82
2022/09/16 04:10:00;;;;;;;13.38;1.27;;;14.80;99.90;;;;;;5032022;28;20206;-82
2022/09/16 04:12:27;;;;;;;7.43;1.30;;;14.90;99.90;;;;;;5032017;28;20644;-82
2022/09/16 04:14:52;;;;;;;5.68;1.10;;;14.90;99.90;;;;;;5033073;28;20187;-82
2022/09/16 04:17:18;;;;;;;3.08;1.00;;;14.90;99.90;;;;;;5032001;28;20534;-82
2022/09/16 04:19:44;;;;;;;0.98;0.80;;;14.80;99.90;;;;;;5031680;28;20160;-83
2022/09/16 04:22:09;;;;;;;1.25;0.73;;;14.80;99.90;;;;;;5032956;28;20176;-82
2022/09/16 04:24:35;;;;;;;4.50;1.60;;;14.70;99.90;;;;;;5031767;28;20218;-82
2022/09/16 04:27:00;;;;;;;2.80;1.45;;;14.70;99.90;;;;;;5032984;28;20175;-81
2022/09/16 04:29:26;;;;;;;13.30;1.35;;;14.70;99.90;;;;;;5031714;28;20253;-82
2022/09/16 04:31:52;;;;;;;0.63;0.60;;;14.60;99.90;;;;;;5032179;28;20183;-80
2022/09/16 04:34:18;;;;;;;3.80;1.05;;;14.60;99.90;;;;;;5031733;28;20623;-81
2022/09/16 04:36:44;;;;;;;2.15;1.00;;;14.60;99.90;;;;;;5032834;28;20239;-82
2022/09/16 04:39:11;;;;;;;1.95;1.20;;;14.50;99.90;;;;;;5032897;28;20176;-81
2022/09/16 04:41:37;;;;;;;7.25;0.85;;;14.60;99.90;;;;;;5031190;28;20174;-80
2022/09/16 04:44:03;;;;;;;9.85;1.23;;;14.60;99.90;;;;;;5031491;28;20183;-81
2022/09/16 04:46:31;;;;;;;1.92;1.33;;;14.60;99.90;;;;;;5031420;28;20699;-82
2022/09/16 04:48:57;;;;;;;4.80;1.10;;;14.60;99.90;;;;;;5031013;28;20656;-81
2022/09/16 04:51:26;;;;;;;8.25;1.42;;;14.50;99.90;;;;;;5031816;28;20176;-81
2022/09/16 04:53:53;;;;;;;16.33;1.38;;;14.60;99.90;;;;;;5030875;28;20626;-80
2022/09/16 04:56:22;;;;;;;3.88;0.88;;;14.60;99.90;;;;;;5030860;28;20204;-81
2022/09/16 04:58:50;;;;;;;7.50;1.02;;;14.60;99.90;;;;;;5032714;28;20172;-84
2022/09/16 05:01:18;;;;;;;4.07;0.90;;;14.60;99.90;;;;;;5031078;28;20225;-81
2022/09/16 05:03:46;;;;;;;7.95;1.33;;;14.70;99.90;;;;;;5031375;28;20175;-81
2022/09/16 05:06:14;;;;;;;2.15;0.93;;;14.70;99.90;;;;;;5030942;28;20270;-81
2022/09/16 05:08:40;;;;;;;6.20;0.85;;;14.80;99.90;;;;;;5031259;28;20677;-81
2022/09/16 05:11:08;;;;;;;6.45;1.50;;;14.80;99.90;;;;;;5031472;28;20179;-82
2022/09/16 05:13:34;;;;;;;1.60;0.93;;;14.70;99.90;;;;;;5031341;28;20172;-81
2022/09/16 05:16:03;;;;;;;4.88;1.30;;;14.60;99.90;;;;;;5031019;28;20223;-82
2022/09/16 05:18:29;;;;;;;4.32;1.30;;;14.50;99.90;;;;;;5030866;28;20206;-82
2022/09/16 05:20:59;;;;;;;4.00;0.98;;;14.50;99.90;;;;;;5032134;28;20199;-81
2022/09/16 05:23:24;;;;;;;4.57;1.20;;;14.50;99.90;;;;;;5032188;28;20176;-81
2022/09/16 05:25:50;;;;;;;2.33;0.82;;;14.70;99.90;;;;;;5032211;28;20183;-82
2022/09/16 05:28:16;;;;;;;1.80;1.05;;;14.60;99.90;;;;;;5032297;28;20175;-81
2022/09/16 05:30:41;;;;;;;10.48;1.58;;;14.60;99.90;;;;;;5030695;28;20191;-81
2022/09/16 05:33:07;;;;;;;3.92;0.90;;;14.60;99.90;;;;;;5030698;28;20200;-81
2022/09/16 05:35:32;;;;;;;11.50;1.13;;;14.60;99.90;;;;;;5031973;28;20658;-82
2022/09/16 05:37:58;;;;;;;4.35;1.20;;;14.60;99.90;;;;;;5031922;28;20218;-82
2022/09/16 05:40:26;;;;;;;5.75;1.13;;;14.60;99.90;;;;;;5030863;28;20541;-82
2022/09/16 05:42:51;;;;;;;3.20;1.08;;;14.70;99.90;;;;;;5030175;28;20176;-82
2022/09/16 05:45:17;;;;;;;4.43;1.10;;;14.80;99.90;;;;;;5030678;28;20206;-82
2022/09/16 05:47:46;;;;;;;4.00;1.30;;;14.80;99.90;;;;;;5032154;28;20187;-81
2022/09/16 05:50:12;;;;;;;6.28;1.00;;;14.70;99.90;;;;;;5032024;28;20207;-81
2022/09/16 05:52:38;;;;;;;7.32;1.00;;;14.70;99.90;;;;;;5030946;28;20314;-81
2022/09/16 05:55:04;;;;;;;5.97;1.05;;;14.80;99.90;;;;;;5032412;28;20279;-81
2022/09/16 05:57:29;;;;;;;3.17;1.02;;;14.90;99.90;;;;;;5031680;28;20168;-81
2022/09/16 05:59:55;;;;;;;3.55;0.98;;;14.90;99.90;;;;;;5031795;28;20183;-81
2022/09/16 06:02:20;;;;;;;2.25;0.93;;;14.70;99.90;;;;;;5033031;28;20255;-87
2022/09/16 06:04:46;;;;;;;4.53;0.93;;;14.50;99.90;;;;;;5035741;28;20184;-87
2022/09/16 06:07:12;;;;;;;3.38;1.60;;;14.50;99.90;;;;;;5035738;28;20615;-81
2022/09/16 06:09:37;;;;;;;9.02;1.20;;;14.70;99.90;;;;;;5034402;28;20199;-81
2022/09/16 06:12:03;;;;;;;3.10;1.17;;;14.90;99.90;;;;;;5034329;28;20172;-81
2022/09/16 06:14:29;;;;;;;4.70;1.50;;;14.70;99.90;;;;;;5034142;28;20202;-81
2022/09/16 06:16:55;;;;;;;2.40;1.20;;;14.70;99.90;;;;;;5035390;28;20179;-83
2022/09/16 06:19:21;;;;;;;6.05;1.35;;;14.70;99.90;;;;;;5034301;28;20187;-79
2022/09/16 06:21:47;;;;;;;5.18;0.77;;;14.80;99.90;;;;;;5035492;28;20168;-79
2022/09/16 06:24:14;;;;;;;5.32;1.35;;;14.60;99.90;;;;;;5035408;28;20184;-79
2022/09/16 06:26:42;;;;;;;7.85;1.17;;;14.30;99.90;;;;;;5035403;28;20168;-80
2022/09/16 06:29:08;;;;;;;2.58;1.05;;;14.40;99.90;;;;;;5036373;28;20203;-80
2022/09/16 06:31:36;;;;;;;1.15;0.90;;;14.50;99.90;;;;;;5034828;28;20163;-80
2022/09/16 06:34:02;;;;;;;4.15;1.10;;;14.50;99.90;;;;;;5034468;28;20160;-80
2022/09/16 06:36:33;;;;;;;2.53;0.95;;;14.60;99.90;;;;;;5033586;28;20191;-80
2022/09/16 06:38:58;;;;;;;5.40;1.05;;;14.80;99.90;;;;;;5035164;28;20692;-81
2022/09/16 06:41:24;;;;;;;3.80;1.83;;;14.70;99.90;;;;;;5035152;28;20203;-80
2022/09/16 06:43:50;;;;;;;7.88;1.70;;;14.80;99.90;;;;;;5035152;28;20254;-83
2022/09/16 06:46:25;;;;;;;6.45;2.53;;;14.70;99.90;;;;;;5034937;28;20207;-80
2022/09/16 06:48:53;;;;;;;4.22;1.48;;;14.80;99.90;;;;;;5033535;28;20211;-84
2022/09/16 06:51:25;;;;;;;6.88;1.25;;;14.90;99.90;;;;;;5034733;28;20168;-80
2022/09/16 06:53:52;;;;;;;2.90;0.90;;;14.80;99.90;;;;;;5035029;28;20164;-80
2022/09/16 06:56:20;;;;;;;3.00;1.35;;;14.90;99.90;;;;;;5034505;28;20229;-80
2022/09/16 06:58:48;;;;;;;4.00;1.35;;;14.90;99.90;;;;;;5033882;28;20187;-80
2022/09/16 07:01:16;;;;;;;3.60;1.40;;;14.90;99.90;;;;;;5033464;28;20179;-80
2022/09/16 07:03:45;;;;;;;10.18;1.85;;;15.00;99.90;;;;;;5033464;28;20255;-80
2022/09/16 07:06:13;;;;;;;5.63;1.60;;;15.20;99.90;;;;;;5033215;28;20294;-81
2022/09/16 07:08:39;;;;;;;7.00;2.08;;;15.20;99.90;;;;;;5033284;28;20199;-83
2022/09/16 07:11:08;;;;;;;6.75;1.60;;;15.20;99.90;;;;;;5033350;28;20184;-83
2022/09/16 07:13:34;;;;;;;16.33;1.92;;;15.50;99.90;;;;;;5034377;28;20191;-83
2022/09/16 07:16:06;;;;;;;7.53;1.75;;;15.50;99.90;;;;;;5033302;28;20556;-81
2022/09/16 07:18:32;;;;;;;9.45;1.23;;;15.20;99.90;;;;;;5034223;28;20163;-80
2022/09/16 07:21:01;;;;;;;3.33;1.15;;;15.00;99.90;;;;;;5034014;28;20171;-81
2022/09/16 07:23:31;;;;;;;3.95;0.85;;;14.90;99.90;;;;;;5034337;28;20505;-83
2022/09/16 07:26:21;;;;;;;2.92;1.13;;;14.80;99.90;;;;;;5032659;28;20184;-82
2022/09/16 07:28:48;;;;;;;5.88;1.40;;;14.80;99.90;;;;;;5033880;28;20203;-86
2022/09/16 07:31:19;;;;;;;1.10;1.00;;;14.90;99.90;;;;;;5033404;28;20191;-85
2022/09/16 07:33:47;;;;;;;6.95;1.20;;;14.80;99.90;;;;;;5034576;28;20161;-83
2022/09/16 07:36:15;;;;;;;1.05;0.80;;;15.00;99.90;;;;;;5034482;28;20188;-83
2022/09/16 07:38:40;;;;;;;4.85;1.48;;;15.10;99.90;;;;;;5032939;28;20188;-84
2022/09/16 07:41:10;;;;;;;19.13;3.40;;;15.10;99.90;;;;;;5032978;28;20179;-83
2022/09/16 07:43:36;;;;;;;14.23;9.13;;;15.10;99.90;;;;;;5032425;28;20167;-82
2022/09/16 07:46:01;;;;;;;7.82;4.03;;;15.00;99.90;;;;;;5032492;28;20257;-81
2022/09/16 07:48:31;;;;;;;11.30;5.78;;;14.90;99.90;;;;;;5033533;28;20243;-83
2022/09/16 07:50:59;;;;;;;1.55;0.90;;;15.20;99.90;;;;;;5032661;28;20179;-80
2022/09/16 07:53:26;;;;;;;1.92;0.95;;;15.00;99.90;;;;;;5032522;28;20175;-81
2022/09/16 07:55:53;;;;;;;2.40;0.57;;;15.20;99.90;;;;;;5033514;28;20198;-93
2022/09/16 07:58:21;;;;;;;4.95;0.80;;;15.40;99.90;;;;;;5027718;28;20601;-86
2022/09/16 08:00:48;;;;;;;16.88;0.70;;;15.40;99.90;;;;;;5047587;28;20614;-93
2022/09/16 08:03:14;;;;;;;1.65;0.75;;;15.50;99.90;;;;;;5033890;28;20232;-81
2022/09/16 08:05:40;;;;;;;5.00;0.65;;;15.50;99.90;;;;;;5043271;28;20247;-82
2022/09/16 08:08:06;;;;;;;3.42;0.77;;;15.50;99.90;;;;;;5040406;28;20679;-86
2022/09/16 08:10:32;;;;;;;3.13;0.93;;;15.60;99.90;;;;;;5030124;28;20203;-82
2022/09/16 08:12:57;;;;;;;20.40;1.85;;;15.70;99.90;;;;;;5048255;28;20614;-92
2022/09/16 08:15:23;;;;;;;3.17;0.98;;;15.70;99.90;;;;;;5041459;28;20202;-85
2022/09/16 08:17:48;;;;;;;8.32;1.33;;;15.60;99.90;;;;;;5032962;28;20180;-83
2022/09/16 08:20:14;;;;;;;3.28;0.90;;;15.70;99.90;;;;;;5036455;28;20594;-84
2022/09/16 08:22:40;;;;;;;0.73;0.65;;;15.80;99.90;;;;;;5039517;28;20258;-86
2022/09/16 08:25:06;;;;;;;3.00;0.70;;;16.00;99.90;;;;;;5032072;28;20203;-87
2022/09/16 08:27:34;;;;;;;2.50;0.98;;;16.20;99.90;;;;;;5032117;28;20164;-83
2022/09/16 08:30:00;;;;;;;6.63;1.42;;;16.10;99.90;;;;;;5030596;28;20203;-84
2022/09/16 08:32:27;;;;;;;6.13;0.80;;;16.00;99.90;;;;;;5031579;28;20677;-83
2022/09/16 08:34:52;;;;;;;1.17;0.60;;;16.00;99.90;;;;;;5032131;28;20265;-86
2022/09/16 08:37:18;;;;;;;2.58;0.70;;;15.50;99.90;;;;;;5032514;28;20203;-81
2022/09/16 08:39:46;;;;;;;6.68;0.88;;;15.40;99.90;;;;;;5031100;28;20262;-81
2022/09/16 08:42:28;;;;;;;12.18;0.80;;;15.10;99.90;;;;;;5032385;28;20170;-82
2022/09/16 08:45:01;;;;;;;3.83;0.90;;;14.90;99.90;;;;;;5030879;28;20278;-82
2022/09/16 08:47:41;;;;;;;7.53;0.95;;;14.60;99.90;;;;;;5033014;28;20527;-82
2022/09/16 08:50:15;;;;;;;4.88;1.27;;;14.50;99.90;;;;;;5032051;28;20203;-82
2022/09/16 08:52:42;;;;;;;6.20;1.38;;;14.30;99.90;;;;;;5031478;28;20176;-83
2022/09/16 08:55:20;;;;;;;13.90;1.38;;;14.40;99.90;;;;;;5030687;28;20226;-81
2022/09/16 08:58:13;;;;;;;5.30;0.95;;;14.50;99.90;;;;;;5032085;28;20167;-80
2022/09/16 09:00:41;;;;;;;4.53;1.40;;;14.50;99.90;;;;;;5031797;28;20180;-80
2022/09/16 09:03:24;;;;;;;7.40;1.42;;;14.70;99.90;;;;;;5031254;28;20183;-83
2022/09/16 09:05:58;;;;;;;3.10;1.08;;;14.60;99.90;;;;;;5032205;28;20191;-81
2022/09/16 09:08:42;;;;;;;6.70;2.03;;;14.40;99.90;;;;;;5030722;28;20222;-81
2022/09/16 09:11:13;;;;;;;3.47;1.70;;;14.40;99.90;;;;;;5031705;28;20179;-81
2022/09/16 09:13:45;;;;;;;4.95;1.77;;;14.30;99.90;;;;;;5032172;28;20234;-81
2022/09/16 09:16:22;;;;;;;4.10;2.15;;;14.40;99.90;;;;;;5032387;28;20188;-82
2022/09/16 09:19:03;;;;;;;2.83;1.00;;;14.60;99.90;;;;;;5030899;28;20263;-82
2022/09/16 09:21:33;;;;;;;2.75;1.50;;;14.50;99.90;;;;;;5032154;28;20597;-81
2022/09/16 09:24:32;;;;;;;2.80;1.17;;;14.70;99.90;;;;;;5030854;28;20538;-81
2022/09/16 09:27:11;;;;;;;3.20;1.05;;;14.90;99.90;;;;;;5032204;28;20187;-79
2022/09/16 09:29:53;;;;;;;6.95;1.20;;;15.10;99.90;;;;;;5030841;28;20211;-81
2022/09/16 09:32:33;;;;;;;1.02;0.85;;;15.10;99.90;;;;;;5032120;28;20164;-81
2022/09/16 09:35:51;;;;;;;4.72;1.30;;;15.30;99.90;;;;;;5031753;28;20194;-81
2022/09/16 09:38:34;;;;;;;3.95;1.00;;;15.50;99.90;;;;;;4984390;28;20647;-81
2022/09/16 09:41:26;;;;;;;1.95;1.05;;;15.60;99.90;;;;;;5017140;28;20242;-82
2022/09/16 09:43:58;;;;;;;2.35;0.68;;;15.70;99.90;;;;;;5023398;28;20171;-82
2022/09/16 09:46:29;;;;;;;1.50;0.57;;;15.70;99.90;;;;;;5035143;28;20257;-81
2022/09/16 09:48:59;;;;;;;2.22;0.60;;;15.70;99.90;;;;;;5034546;28;20199;-80
2022/09/16 09:51:33;;;;;;;4.82;1.00;;;15.80;99.90;;;;;;5036383;28;20255;-83
2022/09/16 09:54:25;;;;;;;3.65;0.95;;;16.10;99.90;;;;;;5036406;28;20199;-81
2022/09/16 09:56:56;;;;;;;5.60;0.90;;;16.20;99.90;;;;;;5034279;28;20552;-81
2022/09/16 09:59:33;;;;;;;2.20;0.90;;;16.50;99.90;;;;;;5035348;28;20266;-81
2022/09/16 10:02:02;;;;;;;0.70;0.57;;;16.70;99.90;;;;;;5036762;28;20167;-82
2022/09/16 10:04:36;;;;;;;1.38;0.70;;;16.60;99.90;;;;;;5037280;28;20219;-80
2022/09/16 10:07:04;;;;;;;5.10;2.05;;;16.70;99.90;;;;;;5042370;28;20186;-81
2022/09/16 10:09:32;;;;;;;5.43;2.20;;;16.50;99.90;;;;;;5032233;28;20247;-81
2022/09/16 10:11:58;;;;;;;2.38;1.35;;;16.60;99.90;;;;;;5033469;28;20145;-81
2022/09/16 10:14:33;;;;;;;6.15;1.05;;;16.50;99.90;;;;;;5042173;28;20172;-82
2022/09/16 10:17:15;;;;;;;1.63;1.00;;;16.40;99.90;;;;;;5050104;28;20175;-80
2022/09/16 10:20:00;;;;;;;6.03;1.17;;;16.70;99.90;;;;;;5049403;28;20246;-81
2022/09/16 10:22:31;;;;;;;4.20;1.02;;;17.00;99.90;;;;;;5048624;28;20214;-79
2022/09/16 10:25:02;;;;;;;5.32;1.10;;;17.00;99.90;;;;;;5044885;28;20192;-81
2022/09/16 10:27:35;;;;;;;10.95;4.57;;;16.70;99.90;;;;;;5045119;28;20380;-82
2022/09/16 10:30:17;;;;;;;11.13;1.08;;;16.30;99.90;;;;;;5041746;28;20333;-81
2022/09/16 10:33:05;;;;;;;2.53;1.80;;;16.10;99.90;;;;;;5041856;28;20191;-83
2022/09/16 10:35:34;;;;;;;7.03;2.53;;;15.50;99.90;;;;;;5036971;28;20190;-83
2022/09/16 10:38:11;;;;;;;8.68;2.78;;;15.20;99.90;;;;;;5034679;28;20255;-82
2022/09/16 10:40:38;;;;;;;11.40;3.67;;;15.10;99.90;;;;;;5035520;28;20160;-83
2022/09/16 10:43:12;;;;;;;3.63;2.53;;;15.30;99.90;;;;;;5034228;28;20672;-83
2022/09/16 10:45:45;;;;;;;12.00;4.43;;;15.50;99.90;;;;;;5032893;28;20693;-82
2022/09/16 10:48:18;;;;;;;7.10;2.88;;;15.70;99.90;;;;;;5034533;28;20172;-84
2022/09/16 10:51:01;;;;;;;7.05;2.03;;;15.90;99.90;;;;;;5032537;28;20682;-80
2022/09/16 10:53:34;;;;;;;15.35;4.43;;;16.10;99.90;;;;;;5033614;28;20612;-83
2022/09/16 10:56:06;;;;;;;4.78;2.70;;;16.30;99.90;;;;;;5033489;28;20191;-82
2022/09/16 10:58:32;;;;;;;6.57;2.30;;;16.20;99.90;;;;;;5033379;28;20652;-83
2022/09/16 11:01:29;;;;;;;4.93;1.83;;;16.40;99.90;;;;;;5033683;28;20168;-82
2022/09/16 11:04:17;;;;;;;2.30;1.20;;;16.50;99.90;;;;;;5033401;28;20183;-82
2022/09/16 11:06:58;;;;;;;2.72;1.15;;;16.60;99.90;;;;;;5034799;28;20171;-82
2022/09/16 11:09:45;;;;;;;3.95;0.65;;;16.80;99.90;;;;;;5034618;28;20203;-82
2022/09/16 11:12:46;;;;;;;3.53;1.15;;;16.60;99.90;;;;;;5033114;28;20183;-83
2022/09/16 11:15:27;;;;;;;2.05;0.80;;;16.30;99.90;;;;;;5034498;28;20237;-83
2022/09/16 11:18:14;;;;;;;1.00;0.55;;;16.40;99.90;;;;;;5035260;28;20385;-82
2022/09/16 11:20:58;;;;;;;3.45;0.88;;;16.50;99.90;;;;;;5034402;28;20171;-83
2022/09/16 11:24:01;;;;;;;1.95;0.75;;;16.30;99.90;;;;;;5032836;28;20175;-83
2022/09/16 11:27:05;;;;;;;1.17;0.98;;;16.00;99.90;;;;;;5032844;28;20183;-82
2022/09/16 11:29:41;;;;;;;8.98;0.60;;;15.70;99.90;;;;;;5032766;28;20243;-83
2022/09/16 11:32:57;;;;;;;0.43;0.40;;;15.50;99.90;;;;;;5033716;28;20190;-82
2022/09/16 11:35:42;;;;;;;2.40;1.00;;;15.50;99.90;;;;;;5023784;28;20207;-83
2022/09/16 11:38:19;;;;;;;8.23;1.20;;;15.80;99.90;;;;;;5032859;28;20531;-83
2022/09/16 11:40:56;;;;;;;4.80;0.85;;;15.60;99.90;;;;;;5034119;28;20231;-81
2022/09/16 11:43:40;;;;;;;7.57;3.67;;;15.80;99.90;;;;;;5033848;28;20194;-81
2022/09/16 11:46:43;;;;;;;7.05;1.30;;;15.60;99.90;;;;;;5033992;28;21292;-81
2022/09/16 11:49:30;;;;;;;5.65;1.42;;;15.40;99.90;;;;;;5032817;28;20215;-80
2022/09/16 11:52:17;;;;;;;3.00;2.00;;;15.10;99.90;;;;;;5032799;28;20734;-79
2022/09/16 11:55:03;;;;;;;6.70;2.83;;;14.60;99.90;;;;;;5033748;28;20629;-83
2022/09/16 11:57:33;;;;;;;1.88;1.30;;;14.50;99.90;;;;;;5032721;28;20602;-81
2022/09/16 12:00:09;;;;;;;4.05;0.73;;;14.30;99.90;;;;;;5034191;28;20164;-81
2022/09/16 12:03:17;;;;;;;7.35;1.40;;;14.10;99.90;;;;;;5032509;28;20186;-80
2022/09/16 12:06:02;;;;;;;7.70;1.20;;;14.10;99.90;;;;;;5011354;28;20200;-81
2022/09/16 12:08:49;;;;;;;1.13;1.00;;;14.10;99.90;;;;;;5047745;28;20203;-84
2022/09/16 12:11:32;;;;;;;6.40;0.93;;;13.80;99.90;;;;;;5033631;28;20544;-81
2022/09/16 12:14:11;;;;;;;3.50;1.10;;;13.70;99.90;;;;;;5033022;28;20183;-81
2022/09/16 12:16:55;;;;;;;4.07;0.70;;;13.60;99.90;;;;;;5036992;28;20179;-81
2022/09/16 12:19:36;;;;;;;4.68;0.95;;;13.60;99.90;;;;;;5033272;28;20172;-82
2022/09/16 12:22:28;;;;;;;0.60;0.60;;;13.70;99.90;;;;;;5032527;28;20168;-82
2022/09/16 12:25:05;;;;;;;1.55;0.93;;;13.90;99.90;;;;;;5026566;28;20273;-89
2022/09/16 12:27:50;;;;;;;2.72;0.60;;;14.10;99.90;;;;;;5033899;28;20259;-82
2022/09/16 12:30:20;;;;;;;3.22;1.15;;;14.30;99.90;;;;;;5038252;28;20206;-83
2022/09/16 12:33:05;;;;;;;10.82;0.90;;;14.70;99.90;;;;;;5030785;28;20649;-83
2022/09/16 12:35:40;;;;;;;6.45;0.90;;;15.00;99.90;;;;;;5029900;28;20196;-84
2022/09/16 12:38:18;;;;;;;6.10;0.90;;;15.50;99.90;;;;;;5031338;28;20250;-83
2022/09/16 12:40:54;;;;;;;1.27;0.50;;;15.70;99.90;;;;;;5031079;28;20175;-83
2022/09/16 12:43:40;;;;;;;1.88;0.70;;;15.80;99.90;;;;;;5036742;28;20174;-83
2022/09/16 12:46:09;;;;;;;0.60;0.55;;;16.30;99.90;;;;;;5030453;28;20564;-84
2022/09/16 12:48:44;;;;;;;4.38;0.35;;;16.30;99.90;;;;;;5042909;28;20179;-83
2022/09/16 12:51:38;;;;;;;2.65;0.50;;;16.20;99.90;;;;;;5048044;28;20178;-82
2022/09/16 12:54:25;;;;;;;2.13;0.75;;;16.10;99.90;;;;;;5049613;28;20332;-81
2022/09/16 12:57:03;;;;;;;4.63;1.05;;;16.00;99.90;;;;;;5051961;28;20253;-82
2022/09/16 12:59:44;;;;;;;6.55;0.88;;;16.10;99.90;;;;;;5011956;28;20164;-85
2022/09/16 13:02:18;;;;;;;1.85;0.63;;;15.90;99.90;;;;;;5033008;28;20180;-84
2022/09/16 13:04:51;;;;;;;3.13;0.70;;;15.80;99.90;;;;;;5032374;28;20293;-86
2022/09/16 13:07:27;;;;;;;4.70;0.63;;;15.90;99.90;;;;;;5032877;28;20164;-85
2022/09/16 13:10:20;;;;;;;0.75;0.63;;;16.00;99.90;;;;;;5031185;28;20226;-81
2022/09/16 13:12:55;;;;;;;2.35;0.82;;;16.30;99.90;;;;;;5030646;28;20175;-81
2022/09/16 13:15:30;;;;;;;2.28;0.80;;;16.40;99.90;;;;;;5032030;28;20187;-80
2022/09/16 13:18:08;;;;;;;2.88;1.05;;;16.60;99.90;;;;;;5031052;28;20178;-81